createdAt,value
2023-03-20T00:01:00.118Z,101295.59
2023-03-20T00:03:28.036Z,101300.94
2023-03-20T00:05:55.931Z,101303.50
2023-03-20T00:08:23.827Z,101302.56
2023-03-20T00:10:51.968Z,101302.50
2023-03-20T00:13:26.261Z,101304.00
2023-03-20T00:15:54.762Z,101303.94
2023-03-20T00:18:24.922Z,101308.47
2023-03-20T00:20:54.295Z,101314.03
2023-03-20T00:23:22.769Z,101308.97
2023-03-20T00:25:51.278Z,101304.13
2023-03-20T00:28:39.050Z,101315.59
2023-03-20T00:31:15.252Z,101311.06
2023-03-20T00:33:43.272Z,101302.84
2023-03-20T00:36:11.418Z,101302.28
2023-03-20T00:38:41.272Z,101299.47
2023-03-20T00:41:23.003Z,101292.38
2023-03-20T00:43:56.374Z,101287.31
2023-03-20T00:46:24.382Z,101284.94
2023-03-20T00:48:52.784Z,101290.22
2023-03-20T00:51:20.766Z,101288.06
2023-03-20T00:53:48.632Z,101291.00
2023-03-20T00:56:33.189Z,101283.00
2023-03-20T00:59:04.989Z,101285.94
2023-03-20T01:01:33.246Z,101289.91
2023-03-20T01:04:01.944Z,101291.75
2023-03-20T01:06:31.372Z,101294.56
2023-03-20T01:09:00.161Z,101289.34
2023-03-20T01:11:28.707Z,101290.31
2023-03-20T01:13:57.252Z,101285.81
2023-03-20T01:16:28.180Z,101288.13
2023-03-20T01:18:56.816Z,101291.41
2023-03-20T01:21:25.342Z,101291.78
2023-03-20T01:23:53.294Z,101294.72
2023-03-20T01:26:32.918Z,101289.34
2023-03-20T01:29:01.016Z,101301.56
2023-03-20T01:31:31.975Z,101302.28
2023-03-20T01:34:00.198Z,101298.06
2023-03-20T01:36:28.797Z,101297.63
2023-03-20T01:38:59.227Z,101299.84
2023-03-20T01:41:28.324Z,101296.88
2023-03-20T01:43:56.261Z,101294.59
2023-03-20T01:46:28.408Z,101304.84
2023-03-20T01:49:49.384Z,101291.63
2023-03-20T01:52:17.565Z,101295.94
2023-03-20T01:54:45.513Z,101305.22
2023-03-20T01:57:18.323Z,101301.91
2023-03-20T01:59:51.203Z,101301.31
2023-03-20T02:02:23.476Z,101308.41
2023-03-20T02:04:57.277Z,101305.47
2023-03-20T02:07:26.567Z,101305.47
2023-03-20T02:10:01.353Z,101312.31
2023-03-20T02:12:41.473Z,101309.38
2023-03-20T02:15:13.616Z,101309.97
2023-03-20T02:18:10.862Z,101309.75
2023-03-20T02:20:58.001Z,101308.16
2023-03-20T02:23:57.312Z,101309.34
2023-03-20T02:26:48.124Z,101302.88
2023-03-20T02:29:43.483Z,101306.56
2023-03-20T02:32:38.220Z,101306.56
2023-03-20T02:35:51.623Z,101296.69
2023-03-20T02:38:41.288Z,101305.22
2023-03-20T02:41:18.175Z,101302.28
2023-03-20T02:43:55.275Z,101306.44
2023-03-20T02:46:33.158Z,101302.78
2023-03-20T02:49:09.011Z,101307.91
2023-03-20T02:51:41.530Z,101303.63
2023-03-20T02:54:21.192Z,101311.94
2023-03-20T02:57:02.779Z,101310.84
2023-03-20T02:59:37.702Z,101313.75
2023-03-20T03:02:09.504Z,101308.78
2023-03-20T03:04:41.631Z,101306.56
2023-03-20T03:07:12.386Z,101310.72
2023-03-20T03:09:47.780Z,101315.47
2023-03-20T03:12:19.263Z,101311.56
2023-03-20T03:14:50.094Z,101314.25
2023-03-20T03:17:21.622Z,101302.06
2023-03-20T03:19:53.859Z,101305.47
2023-03-20T03:22:22.582Z,101314.75
2023-03-20T03:24:54.443Z,101313.03
2023-03-20T03:27:27.236Z,101316.47
2023-03-20T03:29:58.088Z,101320.13
2023-03-20T03:32:33.751Z,101320.75
2023-03-20T03:35:05.465Z,101320.50
2023-03-20T03:37:44.575Z,101320.59
2023-03-20T03:40:22.982Z,101318.78
2023-03-20T03:42:57.734Z,101321.09
2023-03-20T03:45:32.587Z,101318.66
2023-03-20T03:48:06.401Z,101328.53
2023-03-20T03:50:39.988Z,101315.63
2023-03-20T03:53:12.819Z,101311.44
2023-03-20T03:55:44.485Z,101322.19
2023-03-20T03:58:18.688Z,101315.97
2023-03-20T04:00:50.539Z,101316.72
2023-03-20T04:03:22.680Z,101315.13
2023-03-20T04:05:54.320Z,101322.31
2023-03-20T04:08:22.288Z,101324.88
2023-03-20T04:10:52.117Z,101322.81
2023-03-20T04:13:20.061Z,101327.22
2023-03-20T04:15:47.970Z,101338.19
2023-03-20T04:18:17.887Z,101337.22
2023-03-20T04:20:48.337Z,101340.63
2023-03-20T04:23:17.581Z,101345.50
2023-03-20T04:25:45.907Z,101334.31
2023-03-20T04:28:16.622Z,101345.16
2023-03-20T04:30:58.610Z,101349.44
2023-03-20T04:33:36.026Z,101348.09
2023-03-20T04:36:32.776Z,101347.59
2023-03-20T04:39:00.904Z,101350.41
2023-03-20T04:41:29.505Z,101345.38
2023-03-20T04:44:00.327Z,101354.06
2023-03-20T04:46:28.391Z,101352.22
2023-03-20T04:48:56.372Z,101350.63
2023-03-20T04:51:28.392Z,101355.38
2023-03-20T04:53:56.586Z,101352.00
2023-03-20T04:56:24.551Z,101349.16
2023-03-20T04:58:54.789Z,101354.06
2023-03-20T05:01:26.164Z,101354.81
2023-03-20T05:04:00.619Z,101358.69
2023-03-20T05:06:32.692Z,101352.88
2023-03-20T05:09:01.898Z,101360.53
2023-03-20T05:11:31.889Z,101362.00
2023-03-20T05:14:12.113Z,101352.25
2023-03-20T05:17:10.631Z,101356.75
2023-03-20T05:19:49.903Z,101363.84
2023-03-20T05:22:36.224Z,101356.53
2023-03-20T05:25:24.410Z,101359.22
2023-03-20T05:28:24.715Z,101355.06
2023-03-20T05:31:08.936Z,101351.38
2023-03-20T05:34:05.374Z,101367.63
2023-03-20T05:37:05.686Z,101362.84
2023-03-20T05:39:59.518Z,101357.38
2023-03-20T05:42:41.820Z,101359.69
2023-03-20T05:45:32.981Z,101363.34
2023-03-20T05:48:19.572Z,101364.06
2023-03-20T05:51:11.831Z,101360.75
2023-03-20T05:53:58.146Z,101362.75
2023-03-20T05:56:41.054Z,101366.28
2023-03-20T05:59:28.492Z,101379.00
2023-03-20T06:02:14.844Z,101370.94
2023-03-20T06:04:49.988Z,101374.09
2023-03-20T06:07:31.201Z,101383.84
2023-03-20T06:10:08.015Z,101388.44
2023-03-20T06:12:36.114Z,101388.97
2023-03-20T06:15:05.668Z,101397.97
2023-03-20T06:17:38.198Z,101408.59
2023-03-20T06:20:07.361Z,101408.13
2023-03-20T06:22:36.809Z,101416.28
2023-03-20T06:25:04.937Z,101412.63
2023-03-20T06:27:37.214Z,101413.72
2023-03-20T06:30:06.172Z,101425.31
2023-03-20T06:32:36.571Z,101439.72
2023-03-20T06:35:08.123Z,101433.09
2023-03-20T06:37:37.879Z,101431.91
2023-03-20T06:40:12.616Z,101441.94
2023-03-20T06:42:40.773Z,101434.22
2023-03-20T06:45:11.190Z,101434.97
2023-03-20T06:47:58.264Z,101452.94
2023-03-20T06:50:27.251Z,101450.94
2023-03-20T06:52:57.327Z,101449.88
2023-03-20T06:55:48.451Z,101450.09
2023-03-20T06:58:17.146Z,101450.09
2023-03-20T07:00:47.091Z,101456.00
2023-03-20T07:03:15.775Z,101457.06
2023-03-20T07:05:46.750Z,101458.38
2023-03-20T07:08:16.219Z,101470.53
2023-03-20T07:10:44.359Z,101463.53
2023-03-20T07:13:14.345Z,101460.94
2023-03-20T07:15:57.464Z,101469.44
2023-03-20T07:18:33.410Z,101474.56
2023-03-20T07:21:03.379Z,101473.38
2023-03-20T07:23:34.939Z,101476.34
2023-03-20T07:26:03.759Z,101472.63
2023-03-20T07:28:32.059Z,101479.16
2023-03-20T07:31:25.105Z,101482.63
2023-03-20T07:34:02.568Z,101476.31
2023-03-20T07:36:31.031Z,101487.63
2023-03-20T07:39:00.349Z,101489.69
2023-03-20T07:41:30.982Z,101486.00
2023-03-20T07:44:10.418Z,101500.41
2023-03-20T07:46:51.593Z,101490.88
2023-03-20T07:49:19.627Z,101481.47
2023-03-20T07:51:48.373Z,101488.91
2023-03-20T07:54:18.072Z,101486.50
2023-03-20T07:56:46.148Z,101482.13
2023-03-20T07:59:15.147Z,101481.34
2023-03-20T08:01:43.336Z,101488.78
2023-03-20T08:04:11.478Z,101481.22
2023-03-20T08:06:40.522Z,101480.69
2023-03-20T08:09:09.274Z,101484.47
2023-03-20T08:11:38.685Z,101484.06
2023-03-20T08:14:06.924Z,101486.63
2023-03-20T08:16:34.929Z,101491.13
2023-03-20T08:19:03.428Z,101492.09
2023-03-20T08:21:32.484Z,101504.22
2023-03-20T08:24:00.537Z,101506.38
2023-03-20T08:26:28.658Z,101512.31
2023-03-20T08:28:58.329Z,101513.22
2023-03-20T08:31:26.542Z,101516.66
2023-03-20T08:33:54.713Z,101509.97
2023-03-20T08:36:22.769Z,101508.16
2023-03-20T08:38:51.157Z,101496.19
2023-03-20T08:41:19.964Z,101502.97
2023-03-20T08:43:48.294Z,101491.78
2023-03-20T08:46:18.638Z,101483.22
2023-03-20T08:48:46.639Z,101477.47
2023-03-20T08:51:15.052Z,101484.56
2023-03-20T08:53:42.975Z,101487.59
2023-03-20T08:56:12.077Z,101492.50
2023-03-20T08:58:40.117Z,101489.84
2023-03-20T09:01:09.607Z,101476.13
2023-03-20T09:03:39.105Z,101477.44
2023-03-20T09:06:08.606Z,101487.06
2023-03-20T09:08:36.608Z,101486.44
2023-03-20T09:11:06.023Z,101480.44
2023-03-20T09:13:34.256Z,101491.38
2023-03-20T09:16:02.274Z,101486.25
2023-03-20T09:18:30.231Z,101488.56
2023-03-20T09:20:59.895Z,101486.41
2023-03-20T09:23:28.101Z,101485.66
2023-03-20T09:25:56.117Z,101484.19
2023-03-20T09:28:24.116Z,101477.13
2023-03-20T09:30:56.680Z,101486.47
2023-03-20T09:33:24.807Z,101483.06
2023-03-20T09:35:52.885Z,101488.38
2023-03-20T09:38:22.312Z,101474.66
2023-03-20T09:40:54.410Z,101476.47
2023-03-20T09:43:46.132Z,101478.25
2023-03-20T09:46:25.364Z,101473.56
2023-03-20T09:49:00.854Z,101475.22
2023-03-20T09:51:37.183Z,101483.00
2023-03-20T09:54:13.141Z,101480.66
2023-03-20T09:56:41.535Z,101482.59
2023-03-20T09:59:09.643Z,101497.63
2023-03-20T10:01:45.815Z,101487.06
2023-03-20T10:04:14.514Z,101479.41
2023-03-20T10:06:42.596Z,101491.72
2023-03-20T10:09:17.857Z,101485.28
2023-03-20T10:12:00.076Z,101493.03
2023-03-20T10:14:38.384Z,101483.22
2023-03-20T10:17:20.826Z,101489.59
2023-03-20T10:19:54.929Z,101485.69
2023-03-20T10:22:26.745Z,101487.22
2023-03-20T10:25:00.263Z,101486.22
2023-03-20T10:27:32.763Z,101479.22
2023-03-20T10:30:22.616Z,101486.22
2023-03-20T10:32:55.935Z,101481.03
2023-03-20T10:35:27.081Z,101483.16
2023-03-20T10:38:08.201Z,101474.19
2023-03-20T10:40:42.254Z,101479.69
2023-03-20T10:43:17.993Z,101475.41
2023-03-20T10:45:49.329Z,101476.19
2023-03-20T10:48:27.111Z,101476.53
2023-03-20T10:50:57.582Z,101482.13
2023-03-20T10:53:31.378Z,101474.75
2023-03-20T10:56:06.395Z,101477.81
2023-03-20T10:58:39.656Z,101484.56
2023-03-20T11:01:07.907Z,101485.53
2023-03-20T11:03:39.769Z,101477.50
2023-03-20T11:06:14.626Z,101480.75
2023-03-20T11:08:44.672Z,101483.91
2023-03-20T11:11:13.957Z,101470.59
2023-03-20T11:13:44.114Z,101471.78
2023-03-20T11:16:20.375Z,101462.66
2023-03-20T11:18:50.083Z,101467.84
2023-03-20T11:21:25.387Z,101468.56
2023-03-20T11:23:54.606Z,101469.31
2023-03-20T11:26:35.657Z,101470.59
2023-03-20T11:29:06.258Z,101468.28
2023-03-20T11:31:36.938Z,101465.38
2023-03-20T11:34:22.812Z,101466.94
2023-03-20T11:37:09.363Z,101452.81
2023-03-20T11:39:40.109Z,101460.28
2023-03-20T11:42:24.716Z,101453.78
2023-03-20T11:44:59.511Z,101459.72
2023-03-20T11:47:30.143Z,101453.22
2023-03-20T11:50:01.008Z,101449.72
2023-03-20T11:52:32.655Z,101447.09
2023-03-20T11:55:03.270Z,101442.69
2023-03-20T11:57:36.103Z,101437.25
2023-03-20T12:00:07.678Z,101437.50
2023-03-20T12:02:37.428Z,101433.75
2023-03-20T12:05:31.360Z,101444.94
2023-03-20T12:08:02.278Z,101435.94
2023-03-20T12:10:33.996Z,101431.91
2023-03-20T12:13:08.713Z,101440.38
2023-03-20T12:15:39.359Z,101438.94
2023-03-20T12:18:13.518Z,101422.84
2023-03-20T12:20:46.179Z,101426.47
2023-03-20T12:23:19.395Z,101425.88
2023-03-20T12:25:52.764Z,101409.06
2023-03-20T12:28:25.850Z,101415.75
2023-03-20T12:31:06.080Z,101422.84
2023-03-20T12:33:44.258Z,101410.44
2023-03-20T12:36:16.539Z,101412.22
2023-03-20T12:38:46.621Z,101402.38
2023-03-20T12:41:17.562Z,101406.78
2023-03-20T12:44:13.497Z,101406.16
2023-03-20T12:46:48.368Z,101408.03
2023-03-20T12:49:30.714Z,101408.00
2023-03-20T12:52:06.544Z,101406.47
2023-03-20T12:55:03.745Z,101402.97
2023-03-20T12:57:40.240Z,101396.78
2023-03-20T13:00:23.197Z,101398.06
2023-03-20T13:03:03.650Z,101385.94
2023-03-20T13:05:43.703Z,101396.25
2023-03-20T13:08:32.647Z,101392.06
2023-03-20T13:11:08.885Z,101395.31
2023-03-20T13:13:46.584Z,101399.34
2023-03-20T13:16:24.391Z,101399.06
2023-03-20T13:19:03.348Z,101394.22
2023-03-20T13:21:38.037Z,101390.00
2023-03-20T13:24:33.961Z,101383.47
2023-03-20T13:27:11.204Z,101391.09
2023-03-20T13:29:49.303Z,101388.91
2023-03-20T13:32:26.728Z,101385.09
2023-03-20T13:35:18.234Z,101384.38
2023-03-20T13:37:51.230Z,101375.31
2023-03-20T13:40:23.138Z,101378.03
2023-03-20T13:42:56.151Z,101380.53
2023-03-20T13:45:32.354Z,101381.56
2023-03-20T13:48:10.743Z,101371.78
2023-03-20T13:50:46.968Z,101365.38
2023-03-20T13:53:30.395Z,101371.78
2023-03-20T13:56:09.663Z,101382.53
2023-03-20T13:58:52.673Z,101370.09
2023-03-20T14:01:30.795Z,101380.38
2023-03-20T14:04:01.936Z,101370.03
2023-03-20T14:06:48.676Z,101374.66
2023-03-20T14:09:33.954Z,101372.72
2023-03-20T14:12:05.201Z,101374.16
2023-03-20T14:14:40.448Z,101374.38
2023-03-20T14:17:14.862Z,101380.44
2023-03-20T14:19:44.765Z,101379.38
2023-03-20T14:22:18.085Z,101376.63
2023-03-20T14:24:57.773Z,101371.66
2023-03-20T14:27:45.219Z,101362.56
2023-03-20T14:30:40.791Z,101374.09
2023-03-20T14:33:26.156Z,101373.22
2023-03-20T14:36:18.670Z,101373.34
2023-03-20T14:38:55.112Z,101367.84
2023-03-20T14:41:27.898Z,101365.38
2023-03-20T14:44:07.490Z,101367.94
2023-03-20T14:46:49.291Z,101363.78
2023-03-20T14:49:27.348Z,101372.06
2023-03-20T14:52:01.341Z,101361.97
2023-03-20T14:54:31.412Z,101362.72
2023-03-20T14:57:11.244Z,101367.91
2023-03-20T14:59:39.511Z,101367.50
2023-03-20T15:02:07.454Z,101361.00
2023-03-20T15:04:40.643Z,101359.03
2023-03-20T15:07:16.501Z,101353.72
2023-03-20T15:09:47.649Z,101354.59
2023-03-20T15:12:20.249Z,101351.38
2023-03-20T15:14:52.573Z,101356.88
2023-03-20T15:17:23.408Z,101353.59
2023-03-20T15:19:51.495Z,101352.09
2023-03-20T15:22:21.910Z,101342.00
2023-03-20T15:24:55.703Z,101346.56
2023-03-20T15:27:26.113Z,101338.31
2023-03-20T15:29:56.314Z,101338.44
2023-03-20T15:32:25.182Z,101341.38
2023-03-20T15:34:53.304Z,101342.91
2023-03-20T15:37:25.793Z,101339.97
2023-03-20T15:39:56.208Z,101338.53
2023-03-20T15:42:26.104Z,101340.69
2023-03-20T15:44:56.721Z,101339.59
2023-03-20T15:47:27.199Z,101331.78
2023-03-20T15:49:56.674Z,101337.28
2023-03-20T15:52:33.992Z,101343.06
2023-03-20T15:55:07.320Z,101338.19
2023-03-20T15:57:38.258Z,101338.31
2023-03-20T16:00:08.755Z,101340.94
2023-03-20T16:02:37.570Z,101343.38
2023-03-20T16:05:10.259Z,101345.16
2023-03-20T16:07:39.595Z,101352.97
2023-03-20T16:10:18.574Z,101352.69
2023-03-20T16:12:51.452Z,101353.50
2023-03-20T16:15:20.474Z,101358.41
2023-03-20T16:17:50.614Z,101360.69
2023-03-20T16:20:19.182Z,101361.13
2023-03-20T16:22:50.038Z,101357.94
2023-03-20T16:25:20.427Z,101355.78
2023-03-20T16:27:52.051Z,101357.94
2023-03-20T16:30:24.960Z,101357.00
2023-03-20T16:32:59.459Z,101362.56
2023-03-20T16:35:31.042Z,101358.94
2023-03-20T16:38:03.459Z,101349.84
2023-03-20T16:40:33.810Z,101361.81
2023-03-20T16:43:08.034Z,101353.47
2023-03-20T16:45:37.114Z,101360.25
2023-03-20T16:48:28.905Z,101355.38
2023-03-20T16:51:00.666Z,101352.88
2023-03-20T16:53:38.045Z,101345.59
2023-03-20T16:56:11.509Z,101351.59
2023-03-20T16:58:41.257Z,101354.44
2023-03-20T17:01:15.670Z,101357.00
2023-03-20T17:03:49.272Z,101351.09
2023-03-20T17:06:35.975Z,101362.38
2023-03-20T17:09:18.959Z,101358.66
2023-03-20T17:11:49.555Z,101362.38
2023-03-20T17:14:18.174Z,101364.56
2023-03-20T17:16:46.399Z,101359.22
2023-03-20T17:19:17.349Z,101364.06
2023-03-20T17:21:46.012Z,101369.47
2023-03-20T17:24:17.008Z,101365.91
2023-03-20T17:26:55.892Z,101370.44
2023-03-20T17:29:23.948Z,101373.97
2023-03-20T17:31:51.936Z,101378.63
2023-03-20T17:34:19.915Z,101378.38
2023-03-20T17:36:49.151Z,101373.84
2023-03-20T17:39:21.020Z,101379.97
2023-03-20T17:41:49.361Z,101381.56
2023-03-20T17:44:17.432Z,101378.28
2023-03-20T17:46:57.181Z,101380.34
2023-03-20T17:49:27.663Z,101377.50
2023-03-20T17:51:56.477Z,101379.59
2023-03-20T17:54:26.279Z,101388.75
2023-03-20T17:56:54.463Z,101386.81
2023-03-20T17:59:22.442Z,101390.09
2023-03-20T18:01:50.698Z,101384.88
2023-03-20T18:04:19.819Z,101381.91
2023-03-20T18:06:49.204Z,101375.31
2023-03-20T18:09:17.375Z,101386.44
2023-03-20T18:11:46.827Z,101383.88
2023-03-20T18:14:18.039Z,101382.78
2023-03-20T18:16:46.732Z,101384.25
2023-03-20T18:19:23.563Z,101371.66
2023-03-20T18:21:51.458Z,101377.28
2023-03-20T18:24:20.292Z,101374.25
2023-03-20T18:26:50.751Z,101378.75
2023-03-20T18:29:18.748Z,101377.91
2023-03-20T18:31:47.118Z,101379.97
2023-03-20T18:34:15.281Z,101385.09
2023-03-20T18:36:44.084Z,101381.56
2023-03-20T18:39:16.767Z,101383.16
2023-03-20T18:41:44.856Z,101387.50
2023-03-20T18:44:14.449Z,101385.34
2023-03-20T18:46:43.255Z,101383.13
2023-03-20T18:49:16.107Z,101391.44
2023-03-20T18:51:44.185Z,101387.78
2023-03-20T18:54:12.132Z,101380.44
2023-03-20T18:56:40.723Z,101385.81
2023-03-20T18:59:09.464Z,101383.97
2023-03-20T19:01:38.837Z,101390.94
2023-03-20T19:04:06.982Z,101385.44
2023-03-20T19:06:35.133Z,101390.94
2023-03-20T19:09:05.121Z,101390.91
2023-03-20T19:11:33.139Z,101390.78
2023-03-20T19:14:01.049Z,101383.09
2023-03-20T19:16:31.920Z,101390.66
2023-03-20T19:19:03.023Z,101392.00
2023-03-20T19:21:33.490Z,101398.63
2023-03-20T19:24:03.515Z,101392.28
2023-03-20T19:26:34.013Z,101397.13
2023-03-20T19:29:03.419Z,101401.66
2023-03-20T19:31:31.340Z,101397.84
2023-03-20T19:33:59.597Z,101398.28
2023-03-20T19:36:31.037Z,101404.28
2023-03-20T19:39:00.635Z,101398.97
2023-03-20T19:41:29.792Z,101392.53
2023-03-20T19:43:58.287Z,101398.00
2023-03-20T19:46:39.542Z,101408.06
2023-03-20T19:49:17.902Z,101399.66
2023-03-20T19:51:48.283Z,101393.69
2023-03-20T19:54:16.537Z,101398.09
2023-03-20T19:56:44.621Z,101397.84
2023-03-20T19:59:15.973Z,101399.16
2023-03-20T20:01:45.602Z,101402.56
2023-03-20T20:04:13.952Z,101408.69
2023-03-20T20:06:42.100Z,101404.50
2023-03-20T20:09:11.501Z,101403.63
2023-03-20T20:11:39.497Z,101401.91
2023-03-20T20:14:09.783Z,101402.75
2023-03-20T20:16:42.448Z,101396.41
2023-03-20T20:19:10.616Z,101395.41
2023-03-20T20:24:28.630Z,101402.22
2023-03-20T20:27:15.368Z,101396.28
2023-03-20T20:29:44.152Z,101390.03
2023-03-20T20:32:12.194Z,101378.94
2023-03-20T20:40:21.995Z,101385.44
2023-03-20T20:42:51.703Z,101395.22
2023-03-20T20:45:21.555Z,101389.13
2023-03-20T20:47:50.640Z,101379.47
2023-03-20T20:50:20.302Z,101381.91
2023-03-20T20:52:48.685Z,101383.00
2023-03-20T20:55:22.930Z,101378.72
2023-03-20T20:57:53.821Z,101385.72
2023-03-20T21:00:27.538Z,101391.56
2023-03-20T21:02:59.799Z,101388.59
2023-03-20T21:05:28.288Z,101380.22
2023-03-20T21:07:57.844Z,101386.06
2023-03-20T21:10:25.849Z,101371.31
2023-03-20T21:12:59.550Z,101360.22
2023-03-20T21:15:28.055Z,101366.50
2023-03-20T21:18:03.391Z,101371.38
2023-03-20T21:20:33.647Z,101381.13
2023-03-20T21:23:02.354Z,101369.25
2023-03-20T21:25:40.301Z,101364.16
2023-03-20T21:28:11.351Z,101376.75
2023-03-20T21:30:49.935Z,101374.13
2023-03-20T21:33:25.171Z,101372.78
2023-03-20T21:35:53.890Z,101378.84
2023-03-20T21:41:10.665Z,101382.56
2023-03-20T21:43:40.877Z,101383.53
2023-03-20T22:01:00.765Z,101397.09
2023-03-20T22:03:09.946Z,101392.50
2023-03-20T22:37:29.332Z,101398.88
2023-03-20T22:40:22.615Z,101406.28
2023-03-20T22:45:03.517Z,101387.66
2023-03-20T22:47:32.346Z,101397.41
2023-03-20T22:50:01.824Z,101395.09
2023-03-20T22:52:45.489Z,101394.53
2023-03-20T22:55:17.155Z,101396.47
2023-03-20T22:57:56.300Z,101403.91
2023-03-20T23:00:33.370Z,101407.88
2023-03-20T23:03:15.234Z,101400.31
2023-03-20T23:05:47.218Z,101406.66
2023-03-20T23:08:15.314Z,101405.31
2023-03-20T23:10:44.096Z,101405.41
2023-03-20T23:13:12.450Z,101406.31
2023-03-20T23:15:40.547Z,101400.81
2023-03-20T23:18:09.768Z,101403.31
2023-03-20T23:20:37.960Z,101410.28
2023-03-20T23:23:07.340Z,101402.75
2023-03-20T23:25:39.695Z,101411.75
2023-03-20T23:28:10.879Z,101411.41
2023-03-20T23:30:48.085Z,101404.81
2023-03-20T23:33:17.694Z,101407.16
2023-03-20T23:35:46.400Z,101408.94
2023-03-20T23:38:15.663Z,101410.94
2023-03-20T23:40:50.116Z,101404.53
2023-03-20T23:43:18.246Z,101393.94
2023-03-20T23:45:46.490Z,101395.50
2023-03-20T23:48:14.483Z,101404.63
2023-03-20T23:50:52.097Z,101400.00
2023-03-20T23:53:22.181Z,101408.78
2023-03-20T23:55:51.490Z,101400.63
2023-03-20T23:58:20.198Z,101409.00
